createdAt,value
2017-10-31T00:01:17.910Z,7.20
2017-10-31T00:03:45.452Z,8.10
2017-10-31T00:06:12.980Z,6.50
2017-10-31T00:08:40.535Z,8.70
2017-10-31T00:11:09.330Z,8.37
2017-10-31T00:13:36.877Z,6.07
2017-10-31T00:16:04.422Z,6.03
2017-10-31T00:18:31.913Z,6.30
2017-10-31T00:20:59.447Z,6.70
2017-10-31T00:23:26.973Z,6.43
2017-10-31T00:25:54.493Z,6.07
2017-10-31T00:28:21.982Z,6.20
2017-10-31T00:30:49.497Z,6.07
2017-10-31T00:33:17.006Z,5.68
2017-10-31T00:35:44.515Z,5.57
2017-10-31T00:38:12.373Z,7.20
2017-10-31T00:40:39.901Z,7.30
2017-10-31T00:43:07.429Z,6.67
2017-10-31T00:45:34.961Z,7.50
2017-10-31T00:48:02.469Z,7.30
2017-10-31T00:50:29.990Z,6.43
2017-10-31T00:52:57.529Z,11.13
2017-10-31T00:55:25.021Z,6.30
2017-10-31T00:57:52.521Z,5.80
2017-10-31T01:00:20.014Z,5.30
2017-10-31T01:02:47.522Z,6.30
2017-10-31T01:05:15.029Z,5.80
2017-10-31T01:07:42.532Z,6.63
2017-10-31T01:10:10.030Z,5.70
2017-10-31T01:12:37.526Z,6.30
2017-10-31T01:15:05.014Z,5.70
2017-10-31T01:17:32.518Z,6.13
2017-10-31T01:20:00.025Z,6.57
2017-10-31T01:22:27.536Z,7.30
2017-10-31T01:24:55.040Z,7.30
2017-10-31T01:27:22.548Z,7.43
2017-10-31T01:29:50.063Z,7.60
2017-10-31T01:32:17.631Z,7.50
2017-10-31T01:34:45.132Z,8.90
2017-10-31T01:37:12.645Z,9.45
2017-10-31T01:39:40.147Z,8.60
2017-10-31T01:42:07.652Z,7.93
2017-10-31T01:44:35.149Z,8.00
2017-10-31T01:47:02.667Z,7.80
2017-10-31T01:49:30.190Z,7.53
2017-10-31T01:51:57.688Z,6.77
2017-10-31T01:54:25.224Z,8.45
2017-10-31T01:56:53.653Z,6.00
2017-10-31T01:59:21.153Z,7.57
2017-10-31T02:01:48.661Z,6.60
2017-10-31T02:04:16.175Z,6.53
2017-10-31T02:06:43.700Z,7.20
2017-10-31T02:09:11.206Z,7.25
2017-10-31T02:11:38.809Z,7.72
2017-10-31T02:14:06.307Z,7.83
2017-10-31T02:16:33.819Z,6.47
2017-10-31T02:19:01.347Z,7.45
2017-10-31T02:21:28.857Z,6.15
2017-10-31T02:23:56.373Z,6.28
2017-10-31T02:26:23.878Z,5.47
2017-10-31T02:28:51.395Z,6.30
2017-10-31T02:31:18.895Z,5.70
2017-10-31T02:33:46.399Z,5.77
2017-10-31T02:36:13.906Z,6.40
2017-10-31T02:38:53.441Z,4.70
2017-10-31T02:41:20.978Z,6.90
2017-10-31T02:43:48.490Z,5.27
2017-10-31T02:46:16.008Z,6.80
2017-10-31T02:48:43.498Z,5.70
2017-10-31T02:51:11.006Z,5.05
2017-10-31T02:53:38.587Z,5.53
2017-10-31T02:56:06.095Z,5.60
2017-10-31T02:58:33.640Z,5.72
2017-10-31T03:01:01.127Z,4.80
2017-10-31T03:03:28.627Z,5.43
2017-10-31T03:05:56.123Z,5.47
2017-10-31T03:08:23.618Z,5.57
2017-10-31T03:10:51.155Z,6.05
2017-10-31T03:13:18.642Z,5.00
2017-10-31T03:15:46.154Z,6.75
2017-10-31T03:18:13.665Z,6.22
2017-10-31T03:20:41.179Z,6.60
2017-10-31T03:23:09.147Z,7.12
2017-10-31T03:25:36.649Z,6.28
2017-10-31T03:28:04.182Z,5.95
2017-10-31T03:30:31.699Z,5.72
2017-10-31T03:32:59.205Z,5.60
2017-10-31T03:35:26.694Z,4.97
2017-10-31T03:37:54.190Z,5.30
2017-10-31T03:40:21.703Z,5.05
2017-10-31T03:42:49.210Z,4.85
2017-10-31T03:45:16.722Z,5.37
2017-10-31T03:47:44.231Z,4.43
2017-10-31T03:50:11.738Z,4.50
2017-10-31T03:52:39.242Z,5.57
2017-10-31T03:55:06.765Z,5.22
2017-10-31T03:57:34.251Z,5.10
2017-10-31T04:00:01.767Z,4.75
2017-10-31T04:02:29.295Z,5.60
2017-10-31T04:04:56.810Z,5.90
2017-10-31T04:07:24.313Z,5.50
2017-10-31T04:09:51.814Z,5.00
2017-10-31T04:12:19.474Z,4.95
2017-10-31T04:14:46.979Z,5.43
2017-10-31T04:17:14.595Z,4.93
2017-10-31T04:19:42.110Z,5.57
2017-10-31T04:22:09.617Z,4.95
2017-10-31T04:24:37.148Z,5.53
2017-10-31T04:27:04.668Z,5.57
2017-10-31T04:29:32.155Z,5.82
2017-10-31T04:31:59.671Z,4.57
2017-10-31T04:34:27.174Z,4.62
2017-10-31T04:36:54.695Z,5.40
2017-10-31T04:39:22.194Z,4.32
2017-10-31T04:41:49.722Z,5.30
2017-10-31T04:44:17.241Z,5.20
2017-10-31T04:46:44.738Z,4.32
2017-10-31T04:49:12.269Z,5.30
2017-10-31T04:51:39.789Z,5.85
2017-10-31T04:54:07.294Z,6.05
2017-10-31T04:56:34.809Z,4.95
2017-10-31T04:59:02.355Z,5.05
2017-10-31T05:01:29.870Z,6.20
2017-10-31T05:03:57.385Z,5.50
2017-10-31T05:06:24.901Z,5.97
2017-10-31T05:08:52.414Z,5.53
2017-10-31T05:11:19.910Z,4.55
2017-10-31T05:13:47.424Z,4.97
2017-10-31T05:16:14.938Z,4.60
2017-10-31T05:18:42.466Z,5.28
2017-10-31T05:21:09.981Z,4.90
2017-10-31T05:23:37.549Z,6.00
2017-10-31T05:26:05.065Z,5.45
2017-10-31T05:28:32.578Z,5.40
2017-10-31T05:31:00.095Z,5.95
2017-10-31T05:33:27.603Z,5.57
2017-10-31T05:35:55.123Z,4.65
2017-10-31T05:38:22.636Z,5.30
2017-10-31T05:40:50.146Z,6.62
2017-10-31T05:43:17.674Z,5.53
2017-10-31T05:45:45.198Z,5.60
2017-10-31T05:48:12.750Z,5.60
2017-10-31T05:50:40.244Z,5.00
2017-10-31T05:53:07.761Z,5.62
2017-10-31T05:55:35.276Z,7.18
2017-10-31T05:58:02.784Z,4.90
2017-10-31T06:00:30.402Z,5.05
2017-10-31T06:02:57.913Z,4.97
2017-10-31T06:05:25.429Z,4.55
2017-10-31T06:07:52.946Z,4.35
2017-10-31T06:10:20.440Z,5.37
2017-10-31T06:12:47.957Z,5.93
2017-10-31T06:15:15.456Z,6.65
2017-10-31T06:17:42.957Z,5.60
2017-10-31T06:20:10.458Z,4.55
2017-10-31T06:25:47.773Z,5.05
2017-10-31T06:28:20.850Z,6.03
2017-10-31T06:30:54.050Z,5.62
2017-10-31T06:33:21.553Z,5.25
2017-10-31T06:35:49.081Z,4.82
2017-10-31T06:38:16.595Z,5.35
2017-10-31T06:40:44.106Z,6.05
2017-10-31T06:43:11.625Z,6.15
2017-10-31T06:45:39.141Z,4.78
2017-10-31T06:48:06.689Z,5.70
2017-10-31T06:50:34.193Z,5.70
2017-10-31T06:53:01.689Z,5.05
2017-10-31T06:55:29.222Z,7.20
2017-10-31T06:57:56.743Z,4.80
2017-10-31T07:00:24.267Z,5.28
2017-10-31T07:02:51.784Z,5.78
2017-10-31T07:05:19.327Z,5.50
2017-10-31T07:07:46.856Z,5.90
2017-10-31T07:10:14.362Z,5.70
2017-10-31T07:12:41.871Z,4.78
2017-10-31T07:15:09.365Z,6.07
2017-10-31T07:17:36.878Z,6.77
2017-10-31T07:20:04.427Z,5.70
2017-10-31T07:22:31.946Z,6.53
2017-10-31T07:24:59.467Z,6.20
2017-10-31T07:27:26.986Z,5.63
2017-10-31T07:29:54.492Z,6.20
2017-10-31T07:32:21.999Z,7.20
2017-10-31T07:34:49.526Z,5.43
2017-10-31T07:37:17.045Z,7.67
2017-10-31T07:39:44.541Z,5.23
2017-10-31T07:42:12.034Z,5.30
2017-10-31T07:44:39.539Z,7.20
2017-10-31T07:47:07.035Z,5.00
2017-10-31T07:49:34.524Z,4.80
2017-10-31T07:52:02.017Z,4.67
2017-10-31T07:54:29.510Z,4.23
2017-10-31T07:56:57.002Z,4.20
2017-10-31T07:59:24.503Z,5.20
2017-10-31T08:01:52.008Z,4.40
2017-10-31T08:04:19.514Z,4.13
2017-10-31T08:06:47.025Z,3.93
2017-10-31T08:09:14.544Z,4.67
2017-10-31T08:11:42.047Z,4.80
2017-10-31T08:14:09.557Z,5.23
2017-10-31T08:16:37.056Z,4.40
2017-10-31T08:19:04.576Z,4.90
2017-10-31T08:21:32.068Z,4.33
2017-10-31T08:23:59.558Z,4.40
2017-10-31T08:26:27.078Z,5.40
2017-10-31T08:28:54.596Z,5.53
2017-10-31T08:31:22.163Z,5.20
2017-10-31T08:33:49.671Z,8.17
2017-10-31T08:36:17.177Z,5.33
2017-10-31T08:38:44.677Z,6.07
2017-10-31T08:41:12.178Z,5.43
2017-10-31T08:43:39.669Z,6.00
2017-10-31T08:46:07.177Z,5.97
2017-10-31T08:48:34.679Z,5.40
2017-10-31T08:51:02.179Z,5.97
2017-10-31T08:53:29.673Z,5.63
2017-10-31T08:55:57.154Z,5.63
2017-10-31T08:58:31.261Z,5.80
2017-10-31T09:00:58.773Z,6.03
2017-10-31T09:03:26.278Z,5.10
2017-10-31T09:05:53.789Z,5.30
2017-10-31T09:08:21.293Z,5.13
2017-10-31T09:10:48.777Z,6.03
2017-10-31T09:13:16.356Z,5.47
2017-10-31T09:15:43.864Z,6.37
2017-10-31T09:18:11.358Z,5.43
2017-10-31T09:20:38.850Z,5.90
2017-10-31T09:23:06.364Z,5.70
2017-10-31T09:25:33.875Z,5.67
2017-10-31T09:28:01.389Z,6.20
2017-10-31T09:30:28.961Z,6.47
2017-10-31T09:32:56.449Z,6.23
2017-10-31T09:35:23.978Z,7.00
2017-10-31T09:37:51.496Z,6.97
2017-10-31T09:40:19.007Z,7.80
2017-10-31T09:42:46.511Z,7.20
2017-10-31T09:45:14.038Z,7.10
2017-10-31T09:47:41.546Z,7.60
2017-10-31T09:50:09.047Z,7.40
2017-10-31T09:52:36.533Z,8.10
2017-10-31T09:55:04.057Z,8.57
2017-10-31T09:57:31.657Z,9.10
2017-10-31T09:59:59.197Z,8.13
2017-10-31T10:02:26.738Z,7.63
2017-10-31T10:04:54.241Z,7.20
2017-10-31T10:07:21.758Z,7.80
2017-10-31T10:09:49.266Z,8.03
2017-10-31T10:12:16.777Z,7.43
2017-10-31T10:14:44.405Z,8.00
2017-10-31T10:17:11.971Z,7.30
2017-10-31T10:19:39.471Z,7.87
2017-10-31T10:22:07.002Z,6.97
2017-10-31T10:24:34.556Z,7.27
2017-10-31T10:27:02.060Z,6.80
2017-10-31T10:29:29.646Z,8.80
2017-10-31T10:31:57.153Z,7.20
2017-10-31T10:34:24.658Z,7.43
2017-10-31T10:36:52.167Z,7.43
2017-10-31T10:39:20.676Z,7.40
2017-10-31T10:41:48.189Z,7.97
2017-10-31T10:44:15.829Z,8.20
2017-10-31T10:46:43.341Z,7.30
2017-10-31T10:49:10.848Z,7.43
2017-10-31T10:51:38.374Z,7.20
2017-10-31T10:54:05.878Z,7.23
2017-10-31T10:56:33.393Z,7.70
2017-10-31T10:59:00.940Z,7.73
2017-10-31T11:01:28.434Z,7.53
2017-10-31T11:03:55.986Z,7.50
2017-10-31T11:06:23.520Z,7.80
2017-10-31T11:08:51.043Z,7.97
2017-10-31T11:11:18.553Z,7.73
2017-10-31T11:13:46.055Z,10.10
2017-10-31T11:16:13.573Z,10.20
2017-10-31T11:18:41.123Z,10.47
2017-10-31T11:21:08.651Z,8.40
2017-10-31T11:23:36.172Z,19.60
2017-10-31T11:26:03.693Z,8.53
2017-10-31T11:28:31.212Z,8.93
2017-10-31T11:30:58.713Z,9.80
2017-10-31T11:33:26.223Z,9.73
2017-10-31T11:35:53.772Z,8.00
2017-10-31T11:38:21.267Z,9.07
2017-10-31T11:40:48.777Z,8.43
2017-10-31T11:43:16.302Z,8.03
2017-10-31T11:45:43.817Z,8.37
2017-10-31T11:48:11.693Z,7.40
2017-10-31T11:50:39.192Z,7.13
2017-10-31T11:53:06.719Z,8.50
2017-10-31T11:55:34.221Z,9.90
2017-10-31T11:58:01.761Z,9.23
2017-10-31T12:00:29.332Z,9.70
2017-10-31T12:02:56.837Z,9.53
2017-10-31T12:05:24.449Z,11.03
2017-10-31T12:07:52.909Z,10.40
2017-10-31T12:10:20.404Z,7.97
2017-10-31T12:12:47.934Z,8.13
2017-10-31T12:15:15.463Z,7.63
2017-10-31T12:17:43.066Z,8.60
2017-10-31T12:20:10.569Z,9.00
2017-10-31T12:22:38.108Z,9.10
2017-10-31T12:25:05.625Z,9.50
2017-10-31T12:27:33.111Z,8.10
2017-10-31T12:30:00.622Z,8.90
2017-10-31T12:32:28.126Z,8.00
2017-10-31T12:34:55.639Z,7.37
2017-10-31T12:37:23.143Z,7.70
2017-10-31T12:39:50.647Z,6.97
2017-10-31T12:42:18.147Z,7.67
2017-10-31T12:44:45.647Z,6.33
2017-10-31T12:47:13.159Z,6.50
2017-10-31T12:49:40.666Z,7.10
2017-10-31T12:52:08.189Z,6.67
2017-10-31T12:54:35.685Z,5.50
2017-10-31T12:57:03.245Z,5.10
2017-10-31T12:59:30.743Z,6.87
2017-10-31T13:01:58.243Z,6.30
2017-10-31T13:04:25.742Z,7.73
2017-10-31T13:06:53.270Z,8.13
2017-10-31T13:09:20.781Z,8.17
2017-10-31T13:11:48.290Z,7.63
2017-10-31T13:14:15.813Z,8.23
2017-10-31T13:16:43.325Z,8.87
2017-10-31T13:19:10.859Z,8.60
2017-10-31T13:21:38.393Z,9.57
2017-10-31T13:24:05.941Z,8.37
2017-10-31T13:26:34.354Z,8.47
2017-10-31T13:29:02.800Z,7.57
2017-10-31T13:31:31.130Z,9.43
2017-10-31T13:33:59.503Z,7.57
2017-10-31T13:36:27.610Z,7.50
2017-10-31T13:38:56.022Z,7.90
2017-10-31T13:41:24.526Z,7.17
2017-10-31T13:43:52.951Z,7.87
2017-10-31T13:46:20.509Z,7.47
2017-10-31T13:48:48.195Z,7.47
2017-10-31T13:51:16.659Z,7.23
2017-10-31T13:53:44.196Z,7.97
2017-10-31T13:56:11.729Z,6.70
2017-10-31T13:58:39.391Z,7.93
2017-10-31T14:01:07.088Z,7.80
2017-10-31T14:03:34.813Z,6.67
2017-10-31T14:06:03.193Z,7.93
2017-10-31T14:08:31.686Z,6.70
2017-10-31T14:10:59.763Z,6.93
2017-10-31T14:13:27.322Z,7.27
2017-10-31T14:15:54.918Z,7.33
2017-10-31T14:18:22.485Z,7.30
2017-10-31T14:20:50.717Z,8.53
2017-10-31T14:23:18.290Z,8.03
2017-10-31T14:25:45.851Z,8.40
2017-10-31T14:28:13.424Z,8.97
2017-10-31T14:30:40.978Z,7.60
2017-10-31T14:33:08.551Z,6.70
2017-10-31T14:35:36.125Z,5.07
2017-10-31T14:38:03.666Z,5.83
2017-10-31T14:40:31.215Z,6.63
2017-10-31T14:42:58.748Z,5.70
2017-10-31T14:45:26.291Z,5.97
2017-10-31T14:47:53.836Z,5.80
2017-10-31T14:50:21.498Z,6.10
2017-10-31T14:52:49.039Z,5.77
2017-10-31T14:55:16.747Z,7.13
2017-10-31T14:57:44.289Z,6.10
2017-10-31T15:00:11.843Z,6.50
2017-10-31T15:02:39.539Z,7.00
2017-10-31T15:05:07.206Z,7.67
2017-10-31T15:07:34.738Z,7.57
2017-10-31T15:10:02.284Z,5.77
2017-10-31T15:12:29.849Z,6.73
2017-10-31T15:14:57.408Z,6.30
2017-10-31T15:17:24.946Z,6.90
2017-10-31T15:19:52.504Z,6.63
2017-10-31T15:22:20.073Z,7.40
2017-10-31T15:24:47.649Z,7.40
2017-10-31T15:27:15.231Z,7.50
2017-10-31T15:29:42.787Z,6.73
2017-10-31T15:32:10.505Z,7.53
2017-10-31T15:34:38.066Z,6.73
2017-10-31T15:37:05.671Z,7.30
2017-10-31T15:39:33.211Z,7.67
2017-10-31T15:42:00.745Z,6.60
2017-10-31T15:44:28.282Z,9.63
2017-10-31T15:46:55.862Z,8.30
2017-10-31T15:49:23.405Z,8.10
2017-10-31T15:51:50.945Z,8.73
2017-10-31T15:54:18.522Z,8.27
2017-10-31T15:56:46.079Z,7.93
2017-10-31T15:59:13.603Z,7.50
2017-10-31T16:01:41.218Z,8.77
2017-10-31T16:04:08.887Z,8.00
2017-10-31T16:06:36.452Z,8.50
2017-10-31T16:09:04.032Z,8.50
2017-10-31T16:11:31.606Z,8.47
2017-10-31T16:13:59.256Z,8.57
2017-10-31T16:16:26.801Z,7.90
2017-10-31T16:18:54.361Z,7.77
2017-10-31T16:21:21.997Z,7.60
2017-10-31T16:23:49.541Z,8.27
2017-10-31T16:26:17.096Z,7.30
2017-10-31T16:28:45.845Z,8.00
2017-10-31T16:31:13.409Z,9.47
2017-10-31T16:33:40.974Z,9.17
2017-10-31T16:36:08.505Z,9.57
2017-10-31T16:38:36.045Z,9.93
2017-10-31T16:41:03.588Z,10.37
2017-10-31T16:43:31.145Z,9.70
2017-10-31T16:45:58.677Z,8.90
2017-10-31T16:48:26.220Z,9.97
2017-10-31T16:50:53.833Z,10.33
2017-10-31T16:53:21.417Z,11.03
2017-10-31T16:55:48.986Z,11.10
2017-10-31T16:58:16.538Z,11.20
2017-10-31T17:00:44.107Z,10.63
2017-10-31T17:03:11.870Z,9.83
2017-10-31T17:05:39.446Z,9.17
2017-10-31T17:08:07.043Z,8.50
2017-10-31T17:10:34.652Z,9.23
2017-10-31T17:13:02.204Z,10.60
2017-10-31T17:15:29.782Z,13.13
2017-10-31T17:17:57.361Z,13.43
2017-10-31T17:20:24.927Z,12.53
2017-10-31T17:22:52.453Z,11.63
2017-10-31T17:25:20.106Z,8.37
2017-10-31T17:27:47.650Z,9.00
2017-10-31T17:30:15.193Z,7.87
2017-10-31T17:32:42.737Z,7.30
2017-10-31T17:35:10.283Z,8.30
2017-10-31T17:37:37.829Z,9.90
2017-10-31T17:40:05.369Z,10.63
2017-10-31T17:42:33.013Z,10.27
2017-10-31T17:45:00.689Z,10.70
2017-10-31T17:47:28.250Z,10.30
2017-10-31T17:49:55.854Z,9.87
2017-10-31T17:52:23.396Z,9.97
2017-10-31T17:54:50.944Z,11.40
2017-10-31T17:57:18.506Z,11.23
2017-10-31T17:59:46.130Z,11.37
2017-10-31T18:02:13.754Z,9.20
2017-10-31T18:04:41.413Z,10.40
2017-10-31T18:07:08.952Z,9.57
2017-10-31T18:09:36.501Z,9.30
2017-10-31T18:12:04.133Z,9.77
2017-10-31T18:14:31.675Z,10.83
2017-10-31T18:16:59.200Z,10.10
2017-10-31T18:19:26.756Z,11.20
2017-10-31T18:21:54.307Z,10.73
2017-10-31T18:24:21.845Z,10.80
2017-10-31T18:26:49.427Z,8.87
2017-10-31T18:29:16.983Z,11.87
2017-10-31T18:31:44.567Z,12.60
2017-10-31T18:34:12.112Z,10.90
2017-10-31T18:36:39.715Z,10.63
2017-10-31T18:39:07.307Z,10.60
2017-10-31T18:41:34.856Z,10.00
2017-10-31T18:44:02.414Z,10.57
2017-10-31T18:46:29.977Z,11.37
2017-10-31T18:48:57.508Z,11.43
2017-10-31T18:51:25.073Z,12.63
2017-10-31T18:53:52.622Z,12.23
2017-10-31T18:56:20.154Z,11.07
2017-10-31T18:58:47.682Z,10.03
2017-10-31T19:01:15.218Z,9.80
2017-10-31T19:03:42.778Z,9.33
2017-10-31T19:06:10.338Z,9.50
2017-10-31T19:08:37.885Z,10.47
2017-10-31T19:11:05.553Z,11.97
2017-10-31T19:13:33.095Z,11.10
2017-10-31T19:16:00.643Z,11.20
2017-10-31T19:18:28.218Z,9.83
2017-10-31T19:20:55.753Z,12.50
2017-10-31T19:23:23.399Z,10.57
2017-10-31T19:25:50.926Z,11.83
2017-10-31T19:28:18.467Z,11.07
2017-10-31T19:30:46.022Z,12.10
2017-10-31T19:33:13.563Z,11.43
2017-10-31T19:35:41.129Z,14.70
2017-10-31T19:38:08.676Z,12.77
2017-10-31T19:40:36.218Z,11.83
2017-10-31T19:43:03.765Z,14.57
2017-10-31T19:45:31.430Z,24.23
2017-10-31T19:47:58.985Z,12.77
2017-10-31T19:50:26.558Z,13.90
2017-10-31T19:52:54.131Z,13.03
2017-10-31T19:55:21.673Z,13.50
2017-10-31T19:57:49.252Z,12.93
2017-10-31T20:00:16.802Z,13.90
2017-10-31T20:02:44.349Z,12.43
2017-10-31T20:05:11.910Z,12.37
2017-10-31T20:07:39.445Z,12.43
2017-10-31T20:10:06.976Z,11.73
2017-10-31T20:12:34.515Z,11.97
2017-10-31T20:15:02.070Z,11.50
2017-10-31T20:17:29.615Z,12.60
2017-10-31T20:19:57.173Z,12.60
2017-10-31T20:22:24.722Z,10.93
2017-10-31T20:24:52.270Z,11.50
2017-10-31T20:27:19.834Z,11.83
2017-10-31T20:29:47.406Z,10.20
2017-10-31T20:32:14.972Z,14.03
2017-10-31T20:34:42.539Z,13.70
2017-10-31T20:37:10.110Z,14.03
2017-10-31T20:39:37.673Z,14.40
2017-10-31T20:42:05.800Z,13.00
2017-10-31T20:44:33.394Z,13.50
2017-10-31T20:47:00.931Z,11.67
2017-10-31T20:49:28.477Z,13.27
2017-10-31T20:51:56.027Z,14.53
2017-10-31T20:54:23.627Z,12.60
2017-10-31T20:56:51.195Z,16.20
2017-10-31T20:59:18.741Z,17.07
2017-10-31T21:01:46.270Z,16.77
2017-10-31T21:04:13.918Z,12.00
2017-10-31T21:06:41.477Z,12.00
2017-10-31T21:09:09.028Z,13.90
2017-10-31T21:11:36.741Z,13.40
2017-10-31T21:14:04.281Z,13.03
2017-10-31T21:16:31.834Z,23.37
2017-10-31T21:18:59.519Z,12.90
2017-10-31T21:21:27.080Z,12.80
2017-10-31T21:23:54.634Z,12.87
2017-10-31T21:26:22.167Z,11.17
2017-10-31T21:28:49.755Z,12.60
2017-10-31T21:31:17.288Z,12.23
2017-10-31T21:33:44.850Z,11.40
2017-10-31T21:36:12.403Z,41.33
2017-10-31T21:38:39.959Z,14.30
2017-10-31T21:41:07.489Z,12.50
2017-10-31T21:43:35.036Z,11.97
2017-10-31T21:46:02.578Z,11.97
2017-10-31T21:48:30.128Z,11.90
2017-10-31T21:50:57.659Z,13.47
2017-10-31T21:53:25.209Z,11.60
2017-10-31T21:55:52.767Z,10.70
2017-10-31T21:58:20.322Z,11.50
2017-10-31T22:00:47.874Z,11.17
2017-10-31T22:03:15.410Z,9.50
2017-10-31T22:05:42.954Z,10.57
2017-10-31T22:08:10.492Z,10.37
2017-10-31T22:10:38.155Z,10.03
2017-10-31T22:13:05.745Z,10.53
2017-10-31T22:15:33.289Z,11.63
2017-10-31T22:18:00.839Z,13.23
2017-10-31T22:20:28.380Z,14.13
2017-10-31T22:22:55.933Z,9.60
2017-10-31T22:25:23.482Z,11.53
2017-10-31T22:27:51.017Z,11.20
2017-10-31T22:30:18.553Z,12.20
2017-10-31T22:32:46.101Z,10.60
2017-10-31T22:35:13.657Z,11.50
2017-10-31T22:37:41.254Z,11.40
2017-10-31T22:40:08.788Z,11.30
2017-10-31T22:42:36.339Z,12.70
2017-10-31T22:45:03.895Z,11.60
2017-10-31T22:47:31.597Z,13.03
2017-10-31T22:49:59.147Z,9.93
2017-10-31T22:52:26.723Z,11.80
2017-10-31T22:54:54.290Z,10.80
2017-10-31T22:57:22.683Z,13.33
2017-10-31T22:59:50.249Z,12.83
2017-10-31T23:02:17.912Z,12.30
2017-10-31T23:04:45.455Z,9.37
2017-10-31T23:07:12.986Z,10.30
2017-10-31T23:09:40.542Z,8.80
2017-10-31T23:12:08.092Z,10.40
2017-10-31T23:14:35.686Z,10.80
2017-10-31T23:17:03.234Z,11.20
2017-10-31T23:19:30.787Z,11.60
2017-10-31T23:21:58.318Z,11.03
2017-10-31T23:24:25.878Z,12.73
2017-10-31T23:26:53.429Z,13.40
2017-10-31T23:29:20.990Z,13.40
2017-10-31T23:31:48.541Z,14.17
2017-10-31T23:34:16.079Z,13.13
2017-10-31T23:36:43.621Z,14.80
2017-10-31T23:39:11.164Z,13.47
2017-10-31T23:41:38.716Z,17.83
2017-10-31T23:44:06.259Z,18.87
2017-10-31T23:46:33.845Z,13.47
2017-10-31T23:49:01.402Z,12.73
2017-10-31T23:51:28.931Z,13.17
2017-10-31T23:53:56.497Z,13.07
2017-10-31T23:56:24.046Z,13.33
2017-10-31T23:58:51.600Z,12.70
